Terminal Aerodrome Forecast
Issued by NWS Twin Cities, MN

Home | Current Version | Previous Version | Text Only | Print | Product List | Glossary Off
Versions: 1 2 3 4 5 6 7 8 9 10 11 12 13 14 15 16 17 18 19 20 21 22 23 24 25 26 27 28 29 30 31 32 33

155
FTUS43 KMPX 161748
TAFMSP
TAF
KMSP 161748Z 1618/1724 13010KT P6SM BKN015
     FM162000 12008KT P6SM SCT020 BKN050
     FM170000 12008KT 3SM -TSRA BR SCT020 OVC040CB
      TEMPO 1700/1703 1/2SM TSRA BKN020CB
     FM170400 13006KT 4SM -SHRA BR OVC008
     FM170600 16004KT 2SM -SHRA BR OVC005
     FM171000 24007KT 3SM BR VCSH OVC005
     FM171400 30012G20KT P6SM VCSH OVC008
     FM171900 30015G23KT P6SM BKN015=

USA.gov is the U.S. government's official web portal to all federal, state and local government web resources and services.